createdAt,value
2023-03-26T00:02:12.745Z,5.57
2023-03-26T00:04:46.635Z,6.97
2023-03-26T00:07:16.285Z,5.03
2023-03-26T00:09:45.456Z,5.20
2023-03-26T00:12:13.637Z,5.60
2023-03-26T00:14:44.095Z,4.63
2023-03-26T00:17:12.321Z,4.60
2023-03-26T00:19:40.581Z,4.63
2023-03-26T00:22:11.182Z,4.27
2023-03-26T00:24:39.686Z,5.57
2023-03-26T00:27:08.980Z,4.93
2023-03-26T00:29:39.985Z,4.70
2023-03-26T00:32:09.856Z,5.20
2023-03-26T00:34:38.050Z,7.10
2023-03-26T00:37:06.239Z,5.53
2023-03-26T00:39:37.536Z,3.27
2023-03-26T00:42:08.255Z,8.53
2023-03-26T00:44:36.474Z,4.23
2023-03-26T00:47:04.852Z,3.37
2023-03-26T00:49:34.771Z,7.20
2023-03-26T00:52:03.856Z,5.00
2023-03-26T00:54:32.207Z,5.10
2023-03-26T00:57:00.427Z,7.00
2023-03-26T00:59:30.549Z,3.97
2023-03-26T01:02:00.391Z,5.70
2023-03-26T01:04:31.948Z,5.13
2023-03-26T01:07:05.154Z,5.20
2023-03-26T01:09:36.640Z,8.57
2023-03-26T01:12:07.981Z,5.10
2023-03-26T01:14:36.757Z,5.50
2023-03-26T01:17:08.065Z,8.57
2023-03-26T01:19:40.941Z,6.27
2023-03-26T01:22:12.956Z,4.47
2023-03-26T01:24:43.773Z,8.50
2023-03-26T01:27:20.249Z,5.47
2023-03-26T01:29:54.644Z,6.73
2023-03-26T01:32:53.562Z,4.90
2023-03-26T01:35:36.764Z,4.07
2023-03-26T01:38:25.053Z,10.07
2023-03-26T01:41:00.348Z,7.93
2023-03-26T01:43:33.700Z,7.27
2023-03-26T01:46:05.349Z,4.70
2023-03-26T01:48:40.025Z,9.00
2023-03-26T01:51:09.324Z,8.27
2023-03-26T01:53:43.741Z,7.23
2023-03-26T01:56:19.947Z,6.63
2023-03-26T01:59:43.185Z,7.53
2023-03-26T02:02:16.284Z,6.80
2023-03-26T02:04:53.451Z,7.20
2023-03-26T02:07:28.794Z,8.83
2023-03-26T02:10:02.247Z,8.53
2023-03-26T02:12:33.615Z,6.03
2023-03-26T02:15:02.843Z,8.13
2023-03-26T02:17:33.278Z,9.70
2023-03-26T02:20:06.730Z,6.33
2023-03-26T02:22:40.865Z,9.70
2023-03-26T02:25:10.713Z,8.23
2023-03-26T02:27:40.496Z,8.43
2023-03-26T02:30:11.146Z,9.03
2023-03-26T02:32:40.045Z,5.97
2023-03-26T02:35:08.975Z,6.63
2023-03-26T02:37:40.073Z,6.10
2023-03-26T02:40:26.022Z,8.67
2023-03-26T02:42:55.751Z,10.33
2023-03-26T02:45:25.631Z,9.47
2023-03-26T02:47:53.914Z,7.57
2023-03-26T02:50:24.193Z,8.23
2023-03-26T02:52:55.532Z,10.70
2023-03-26T02:55:23.788Z,7.63
2023-03-26T02:57:52.073Z,9.67
2023-03-26T03:00:26.013Z,9.97
2023-03-26T03:02:58.110Z,6.60
2023-03-26T03:05:31.429Z,11.17
2023-03-26T03:08:00.852Z,10.37
2023-03-26T03:10:33.342Z,11.47
2023-03-26T03:13:04.217Z,7.73
2023-03-26T03:15:34.905Z,8.27
2023-03-26T03:18:05.014Z,12.00
2023-03-26T03:20:35.498Z,8.57
2023-03-26T03:23:03.679Z,5.13
2023-03-26T03:25:33.905Z,6.43
2023-03-26T03:28:02.214Z,7.50
2023-03-26T03:30:37.110Z,7.77
2023-03-26T03:33:06.165Z,7.47
2023-03-26T03:35:35.227Z,11.17
2023-03-26T03:40:33.742Z,9.30
2023-03-26T03:45:34.823Z,6.83
2023-03-26T03:48:03.105Z,10.23
2023-03-26T03:50:33.627Z,8.20
2023-03-26T03:53:12.877Z,6.40
2023-03-26T03:55:42.039Z,10.53
2023-03-26T03:58:10.395Z,11.30
2023-03-26T04:00:51.685Z,7.90
2023-03-26T04:03:33.083Z,8.30
2023-03-26T04:06:07.017Z,12.00
2023-03-26T04:08:36.561Z,8.60
2023-03-26T04:11:04.961Z,11.33
2023-03-26T04:13:35.467Z,8.93
2023-03-26T04:16:05.571Z,11.13
2023-03-26T04:18:33.762Z,7.77
2023-03-26T04:21:03.396Z,9.43
2023-03-26T04:23:32.116Z,13.53
2023-03-26T04:26:04.884Z,11.03
2023-03-26T04:28:35.728Z,13.87
2023-03-26T04:31:05.662Z,12.20
2023-03-26T04:33:35.881Z,8.03
2023-03-26T04:36:04.292Z,8.53
2023-03-26T04:38:35.727Z,7.77
2023-03-26T04:41:07.649Z,12.97
2023-03-26T04:43:36.924Z,9.87
2023-03-26T04:46:07.557Z,12.10
2023-03-26T04:48:35.755Z,17.77
2023-03-26T04:51:07.275Z,9.47
2023-03-26T04:53:36.501Z,8.30
2023-03-26T04:56:14.757Z,12.13
2023-03-26T04:58:44.156Z,11.43
2023-03-26T05:01:13.950Z,11.13
2023-03-26T05:03:46.476Z,5.07
2023-03-26T05:06:15.484Z,10.57
2023-03-26T05:08:46.402Z,14.43
2023-03-26T05:11:14.955Z,14.00
2023-03-26T05:13:59.495Z,7.77
2023-03-26T05:16:30.130Z,15.90
2023-03-26T05:18:58.377Z,10.07
2023-03-26T05:21:27.907Z,11.90
2023-03-26T05:23:57.567Z,12.90
2023-03-26T05:26:26.202Z,10.13
2023-03-26T05:28:54.433Z,12.67
2023-03-26T05:31:22.881Z,16.30
2023-03-26T05:33:55.658Z,11.23
2023-03-26T05:36:26.036Z,11.30
2023-03-26T05:38:54.549Z,11.83
2023-03-26T05:41:24.822Z,10.30
2023-03-26T05:43:56.931Z,11.63
2023-03-26T05:46:25.179Z,13.43
2023-03-26T05:48:55.976Z,18.23
2023-03-26T05:51:24.626Z,8.77
2023-03-26T05:53:54.952Z,11.73
2023-03-26T05:56:23.069Z,13.00
2023-03-26T05:58:52.783Z,7.57
2023-03-26T06:01:21.055Z,14.33
2023-03-26T06:03:51.832Z,13.33
2023-03-26T06:06:26.144Z,8.93
2023-03-26T06:09:00.912Z,10.37
2023-03-26T06:11:32.873Z,13.27
2023-03-26T06:14:01.537Z,11.87
2023-03-26T06:16:29.983Z,12.57
2023-03-26T06:18:58.807Z,13.47
2023-03-26T06:21:28.709Z,12.87
2023-03-26T06:23:58.296Z,12.67
2023-03-26T06:26:26.925Z,11.53
2023-03-26T06:28:57.384Z,11.00
2023-03-26T06:31:25.569Z,10.77
2023-03-26T06:33:54.921Z,13.33
2023-03-26T06:36:25.470Z,9.33
2023-03-26T06:38:57.550Z,10.20
2023-03-26T06:41:26.806Z,11.17
2023-03-26T06:43:56.778Z,10.30
2023-03-26T06:46:27.008Z,9.17
2023-03-26T06:48:55.192Z,16.27
2023-03-26T06:51:27.103Z,8.07
2023-03-26T06:53:58.003Z,10.23
2023-03-26T06:56:38.991Z,8.57
2023-03-26T06:59:07.649Z,11.30
2023-03-26T07:01:35.892Z,13.97
2023-03-26T07:04:04.250Z,13.33
2023-03-26T07:06:34.520Z,11.40
2023-03-26T07:09:04.487Z,8.77
2023-03-26T07:11:33.820Z,10.10
2023-03-26T07:14:02.070Z,10.53
2023-03-26T07:16:31.519Z,12.40
2023-03-26T07:19:08.619Z,7.27
2023-03-26T07:21:38.689Z,7.53
2023-03-26T07:24:12.451Z,8.73
2023-03-26T07:26:54.442Z,11.37
2023-03-26T07:29:33.981Z,10.87
2023-03-26T07:32:13.492Z,10.03
2023-03-26T07:34:52.642Z,10.77
2023-03-26T07:37:39.660Z,10.60
2023-03-26T07:40:19.260Z,13.57
2023-03-26T07:43:02.692Z,8.97
2023-03-26T07:45:42.973Z,12.10
2023-03-26T07:48:17.091Z,10.87
2023-03-26T07:50:46.415Z,9.97
2023-03-26T07:53:15.748Z,13.17
2023-03-26T07:55:56.337Z,11.57
2023-03-26T07:58:49.226Z,6.97
2023-03-26T08:01:23.819Z,16.33
2023-03-26T08:04:24.163Z,13.70
2023-03-26T08:07:01.421Z,11.10
2023-03-26T08:09:39.769Z,8.07
2023-03-26T08:12:23.201Z,13.03
2023-03-26T08:15:01.411Z,9.77
2023-03-26T08:17:35.470Z,11.67
2023-03-26T08:20:18.640Z,10.30
2023-03-26T08:22:57.375Z,14.57
2023-03-26T08:25:29.768Z,12.67
2023-03-26T08:28:21.281Z,8.77
2023-03-26T08:30:55.330Z,13.33
2023-03-26T08:33:28.504Z,9.33
2023-03-26T08:35:59.041Z,10.90
2023-03-26T08:38:27.360Z,10.17
2023-03-26T08:41:43.388Z,11.17
2023-03-26T08:44:54.105Z,9.03
2023-03-26T08:48:13.628Z,10.47
2023-03-26T08:51:40.471Z,8.47
2023-03-26T08:54:49.382Z,10.63
2023-03-26T08:58:05.644Z,15.03
2023-03-26T09:01:16.791Z,13.10
2023-03-26T09:04:17.498Z,11.43
2023-03-26T09:07:38.799Z,13.43
2023-03-26T09:10:46.519Z,10.97
2023-03-26T09:13:51.970Z,11.57
2023-03-26T09:16:41.219Z,11.40
2023-03-26T09:19:42.603Z,11.30
2023-03-26T09:23:04.416Z,12.20
2023-03-26T09:26:05.971Z,8.97
2023-03-26T09:29:23.570Z,11.93
2023-03-26T09:32:30.334Z,11.03
2023-03-26T09:35:14.750Z,15.50
2023-03-26T09:38:28.921Z,12.67
2023-03-26T09:44:02.181Z,11.30
2023-03-26T09:46:41.215Z,8.97
2023-03-26T09:49:29.407Z,8.07
2023-03-26T09:52:17.808Z,10.97
2023-03-26T09:55:20.918Z,14.17
2023-03-26T09:58:17.036Z,11.70
2023-03-26T10:00:51.238Z,12.20
2023-03-26T10:03:38.681Z,13.60
2023-03-26T10:06:35.685Z,6.10
2023-03-26T10:09:15.460Z,9.17
2023-03-26T10:12:07.756Z,4.80
2023-03-26T10:14:47.619Z,7.73
2023-03-26T10:17:37.544Z,6.93
2023-03-26T10:20:36.280Z,7.17
2023-03-26T10:23:40.674Z,8.40
2023-03-26T10:26:34.025Z,6.67
2023-03-26T10:29:47.871Z,6.03
2023-03-26T10:32:40.453Z,9.20
2023-03-26T10:35:24.139Z,6.90
2023-03-26T10:38:19.284Z,7.57
2023-03-26T10:41:03.554Z,5.30
2023-03-26T10:44:22.030Z,6.83
2023-03-26T10:47:42.504Z,4.20
2023-03-26T10:50:48.780Z,7.77
2023-03-26T10:53:32.783Z,6.10
2023-03-26T10:56:17.605Z,3.57
2023-03-26T10:58:50.230Z,4.20
2023-03-26T11:01:42.958Z,4.73
2023-03-26T11:04:26.617Z,6.93
2023-03-26T11:07:17.395Z,4.77
2023-03-26T11:09:55.411Z,4.77
2023-03-26T11:12:56.599Z,2.97
2023-03-26T11:18:47.180Z,4.10
2023-03-26T11:21:52.787Z,4.77
2023-03-26T11:24:58.730Z,5.40
2023-03-26T11:27:51.812Z,3.50
2023-03-26T11:30:29.582Z,4.07
2023-03-26T11:33:04.309Z,4.10
2023-03-26T11:35:40.249Z,5.80
2023-03-26T11:38:19.688Z,4.67
2023-03-26T11:40:58.734Z,5.43
2023-03-26T11:43:32.283Z,8.80
2023-03-26T11:46:03.546Z,7.07
2023-03-26T11:48:39.783Z,4.33
2023-03-26T11:51:11.658Z,4.40
2023-03-26T11:53:40.772Z,6.77
2023-03-26T11:56:21.149Z,6.60
2023-03-26T11:58:57.443Z,5.37
2023-03-26T12:01:30.923Z,3.80
2023-03-26T12:04:05.270Z,3.07
2023-03-26T12:06:34.503Z,3.53
2023-03-26T12:09:05.643Z,4.33
2023-03-26T12:11:44.497Z,3.97
2023-03-26T12:14:22.183Z,3.17
2023-03-26T12:17:02.348Z,3.33
2023-03-26T12:19:42.107Z,2.27
2023-03-26T12:22:31.927Z,2.70
2023-03-26T12:25:19.683Z,3.83
2023-03-26T12:28:02.616Z,4.80
2023-03-26T12:30:42.432Z,3.20
2023-03-26T12:33:37.622Z,5.90
2023-03-26T12:36:59.984Z,4.40
2023-03-26T12:40:09.730Z,2.53
2023-03-26T12:44:47.003Z,3.23
2023-03-26T12:45:43.793Z,1.77
2023-03-26T12:48:16.615Z,2.47
2023-03-26T12:51:03.539Z,3.63
2023-03-26T12:54:04.541Z,6.93
2023-03-26T12:56:38.659Z,5.63
2023-03-26T12:59:34.260Z,3.43
2023-03-26T13:02:29.469Z,3.37
2023-03-26T13:05:12.183Z,2.17
2023-03-26T13:08:00.510Z,2.10
2023-03-26T13:10:43.238Z,3.00
2023-03-26T13:13:44.251Z,3.50
2023-03-26T13:16:23.091Z,3.83
2023-03-26T13:18:57.404Z,4.20
2023-03-26T13:21:35.673Z,2.20
2023-03-26T13:24:15.115Z,4.47
2023-03-26T13:27:00.654Z,2.20
2023-03-26T13:29:39.360Z,1.83
2023-03-26T13:32:20.250Z,2.63
2023-03-26T13:35:07.563Z,6.13
2023-03-26T13:37:43.638Z,1.47
2023-03-26T13:40:26.048Z,2.10
2023-03-26T13:43:18.221Z,2.70
2023-03-26T13:45:56.245Z,3.60
2023-03-26T13:48:30.025Z,4.20
2023-03-26T13:51:05.274Z,2.90
2023-03-26T13:53:43.114Z,3.00
2023-03-26T13:56:17.462Z,5.83
2023-03-26T13:58:54.940Z,5.57
2023-03-26T14:01:34.863Z,3.27
2023-03-26T14:04:10.247Z,4.90
2023-03-26T14:06:58.981Z,3.63
2023-03-26T14:09:32.679Z,2.53
2023-03-26T14:12:40.945Z,1.70
2023-03-26T14:15:17.978Z,3.67
2023-03-26T14:17:52.517Z,3.70
2023-03-26T14:21:00.579Z,3.73
2023-03-26T14:24:13.299Z,4.17
2023-03-26T14:26:59.566Z,2.47
2023-03-26T14:29:41.395Z,3.30
2023-03-26T14:32:42.156Z,4.53
2023-03-26T14:35:35.324Z,4.13
2023-03-26T14:38:59.396Z,3.00
2023-03-26T14:41:30.839Z,3.20
2023-03-26T14:44:47.645Z,4.00
2023-03-26T14:47:20.875Z,1.77
2023-03-26T14:50:48.455Z,4.63
2023-03-26T14:53:29.776Z,3.43
2023-03-26T14:56:34.350Z,2.33
2023-03-26T14:59:51.227Z,3.67
2023-03-26T15:02:54.178Z,4.00
2023-03-26T15:06:00.527Z,6.10
2023-03-26T15:09:38.527Z,4.50
2023-03-26T15:12:15.758Z,2.63
2023-03-26T15:15:26.087Z,3.90
2023-03-26T15:18:29.383Z,3.67
2023-03-26T15:21:28.203Z,2.70
2023-03-26T15:24:32.721Z,2.57
2023-03-26T15:27:29.911Z,4.33
2023-03-26T15:30:37.937Z,2.50
2023-03-26T15:33:27.782Z,1.67
2023-03-26T15:36:46.613Z,1.93
2023-03-26T15:40:07.873Z,2.77
2023-03-26T15:43:32.339Z,2.30
2023-03-26T15:52:39.521Z,2.20
2023-03-26T15:55:46.953Z,2.00
2023-03-26T15:58:25.620Z,0.97
2023-03-26T16:01:04.328Z,1.07
2023-03-26T16:03:44.236Z,1.30
2023-03-26T16:06:49.013Z,1.37
2023-03-26T16:09:40.338Z,4.10
2023-03-26T16:13:09.477Z,2.13
2023-03-26T16:16:39.697Z,1.60
2023-03-26T16:19:49.448Z,2.50
2023-03-26T16:22:45.164Z,3.13
2023-03-26T16:25:33.850Z,4.20
2023-03-26T16:28:41.185Z,2.37
2023-03-26T16:31:43.185Z,2.27
2023-03-26T16:34:50.538Z,2.17
2023-03-26T16:37:50.197Z,1.83
2023-03-26T16:40:35.785Z,2.63
2023-03-26T16:43:35.268Z,1.20
2023-03-26T16:46:20.392Z,1.20
2023-03-26T16:48:59.893Z,1.70
2023-03-26T16:51:52.581Z,4.03
2023-03-26T16:54:43.559Z,2.23
2023-03-26T16:57:29.112Z,1.97
2023-03-26T17:00:38.821Z,3.00
2023-03-26T17:03:39.865Z,3.00
2023-03-26T17:06:40.904Z,2.00
2023-03-26T17:10:01.879Z,2.10
2023-03-26T17:12:49.241Z,1.37
2023-03-26T17:15:45.685Z,2.33
2023-03-26T17:18:47.457Z,2.07
2023-03-26T17:21:46.148Z,2.10
2023-03-26T17:27:51.779Z,2.73
2023-03-26T17:31:41.211Z,1.83
2023-03-26T17:34:37.744Z,2.27
2023-03-26T17:37:29.754Z,2.17
2023-03-26T17:40:44.351Z,1.60
2023-03-26T17:43:39.061Z,2.40
2023-03-26T17:46:30.591Z,2.37
2023-03-26T17:52:05.794Z,1.33
2023-03-26T17:55:33.474Z,1.50
2023-03-26T17:58:06.530Z,0.80
2023-03-26T18:00:51.245Z,1.40
2023-03-26T18:03:31.922Z,1.87
2023-03-26T18:09:37.391Z,2.40
2023-03-26T18:12:35.037Z,2.00
2023-03-26T18:16:01.691Z,4.97
2023-03-26T18:18:34.402Z,1.50
2023-03-26T18:21:18.389Z,1.50
2023-03-26T18:23:51.743Z,1.20
2023-03-26T18:30:53.942Z,9.20
2023-03-26T18:33:27.769Z,1.63
2023-03-26T18:36:12.299Z,3.00
2023-03-26T18:38:57.634Z,3.63
2023-03-26T18:41:49.549Z,2.67
2023-03-26T18:44:33.786Z,29.07
2023-03-26T18:47:11.638Z,6.70
2023-03-26T18:49:53.514Z,3.60
2023-03-26T18:52:33.985Z,2.30
2023-03-26T18:55:05.188Z,68.63
2023-03-26T18:57:38.657Z,27.47
2023-03-26T19:00:22.247Z,16.77
2023-03-26T19:03:06.028Z,44.00
2023-03-26T19:05:37.906Z,16.57
2023-03-26T19:08:28.870Z,12.60
2023-03-26T19:11:09.780Z,10.70
2023-03-26T19:13:43.630Z,4.23
2023-03-26T19:16:25.153Z,4.00
2023-03-26T19:18:56.018Z,2.67
2023-03-26T19:21:26.902Z,3.63
2023-03-26T19:23:56.389Z,3.23
2023-03-26T19:26:29.611Z,1.53
2023-03-26T19:29:01.339Z,1.53
2023-03-26T19:31:36.446Z,1.40
2023-03-26T19:34:26.658Z,1.40
2023-03-26T19:42:43.708Z,2.20
2023-03-26T19:45:20.783Z,1.57
2023-03-26T19:48:11.678Z,1.73
2023-03-26T19:51:27.315Z,4.03
2023-03-26T19:54:05.973Z,1.40
2023-03-26T19:56:35.366Z,2.43
2023-03-26T19:59:05.739Z,1.83
2023-03-26T20:01:35.009Z,2.43
2023-03-26T20:05:10.312Z,2.13
2023-03-26T20:07:39.801Z,1.70
2023-03-26T20:10:27.904Z,2.53
2023-03-26T20:13:04.173Z,2.70
2023-03-26T20:15:36.584Z,2.93
2023-03-26T20:18:06.078Z,2.07
2023-03-26T20:20:36.899Z,2.03
2023-03-26T20:23:07.673Z,2.73
2023-03-26T20:25:52.171Z,1.83
2023-03-26T20:28:21.789Z,2.63
2023-03-26T20:30:51.041Z,1.87
2023-03-26T20:33:22.464Z,1.77
2023-03-26T20:36:32.747Z,1.60
2023-03-26T20:39:14.680Z,2.40
2023-03-26T20:41:48.301Z,2.57
2023-03-26T20:44:20.316Z,2.77
2023-03-26T20:46:50.539Z,5.57
2023-03-26T20:49:23.096Z,2.13
2023-03-26T20:51:51.369Z,1.87
2023-03-26T20:54:21.415Z,1.60
2023-03-26T20:56:59.697Z,1.60
2023-03-26T20:59:31.787Z,1.20
2023-03-26T21:02:01.830Z,2.37
2023-03-26T21:04:30.363Z,1.20
2023-03-26T21:07:07.129Z,1.10
2023-03-26T21:09:45.324Z,1.50
2023-03-26T21:12:28.188Z,1.50
2023-03-26T21:15:13.380Z,2.50
2023-03-26T21:17:53.939Z,0.80
2023-03-26T21:20:24.504Z,1.37
2023-03-26T21:23:04.642Z,1.00
2023-03-26T21:25:43.167Z,1.23
2023-03-26T21:28:35.868Z,1.83
2023-03-26T21:31:19.493Z,1.30
2023-03-26T21:33:50.521Z,1.20
2023-03-26T21:36:21.463Z,1.10
2023-03-26T21:38:50.609Z,2.00
2023-03-26T21:41:33.788Z,2.00
2023-03-26T21:44:03.676Z,1.60
2023-03-26T21:46:35.830Z,2.23
2023-03-26T21:49:04.888Z,2.03
2023-03-26T21:51:37.849Z,1.47
2023-03-26T21:54:14.843Z,2.23
2023-03-26T21:56:51.107Z,2.40
2023-03-26T21:59:29.090Z,1.00
2023-03-26T22:02:03.902Z,1.10
2023-03-26T22:04:40.555Z,1.60
2023-03-26T22:07:17.744Z,1.63
2023-03-26T22:09:46.852Z,2.50
2023-03-26T22:12:15.135Z,1.50
2023-03-26T22:14:44.943Z,2.17
2023-03-26T22:17:14.742Z,1.90
2023-03-26T22:19:42.966Z,2.33
2023-03-26T22:22:12.831Z,3.77
2023-03-26T22:24:41.068Z,3.87
2023-03-26T22:27:09.354Z,3.20
2023-03-26T22:29:37.936Z,2.10
2023-03-26T22:32:08.162Z,1.53
2023-03-26T22:34:36.413Z,2.80
2023-03-26T22:37:05.647Z,3.57
2023-03-26T22:39:35.130Z,2.53
2023-03-26T22:42:05.079Z,2.47
2023-03-26T22:44:34.785Z,3.33
2023-03-26T22:47:03.014Z,3.53
2023-03-26T22:49:36.203Z,4.33
2023-03-26T22:52:10.622Z,4.43
2023-03-26T22:54:38.753Z,8.47
2023-03-26T22:57:10.165Z,5.87
2023-03-26T22:59:39.679Z,6.17
2023-03-26T23:02:10.305Z,6.70
2023-03-26T23:04:43.210Z,5.23
2023-03-26T23:07:12.384Z,8.10
2023-03-26T23:09:46.998Z,9.37
2023-03-26T23:12:18.174Z,4.87
2023-03-26T23:14:53.075Z,7.27
2023-03-26T23:17:21.479Z,8.30
2023-03-26T23:19:54.341Z,5.83
2023-03-26T23:22:22.522Z,7.53
2023-03-26T23:24:55.671Z,5.77
2023-03-26T23:27:24.293Z,9.03
2023-03-26T23:29:53.445Z,8.63
2023-03-26T23:32:25.254Z,9.77
2023-03-26T23:34:55.882Z,9.33
2023-03-26T23:37:25.127Z,7.57
2023-03-26T23:39:58.772Z,10.33
2023-03-26T23:42:28.704Z,10.30
2023-03-26T23:44:59.220Z,9.40
2023-03-26T23:47:34.607Z,9.17
2023-03-26T23:50:06.314Z,9.37
2023-03-26T23:52:34.519Z,12.43
2023-03-26T23:55:02.692Z,12.10
2023-03-26T23:57:32.229Z,16.77
